Time;durP1;ratioP1;P1;durP2;ratioP2;P2;SDS_P1;SDS_P2;PMS_P1;PMS_P2;Temp;Humidity;BMP_temperature;BMP_pressure;BME280_temperature;BME280_humidity;BME280_pressure;Samples;Min_cycle;Max_cycle;Signal;HPM_P1;HPM_P2
2023/01/06 00:02:26;;;;;;;0.90;0.45;;;10.30;99.90;;;;;;6176001;23;20016;-94
2023/01/06 00:05:24;;;;;;;2.17;0.55;;;10.30;99.90;;;;;;6198572;23;20091;-93
2023/01/06 00:08:18;;;;;;;;;;;;;;;;;;;;;
2023/01/06 00:11:07;;;;;;;0.43;0.30;;;10.30;99.90;;;;;;6223788;23;20012;-95
2023/01/06 00:13:39;;;;;;;0.38;0.38;;;10.30;99.90;;;;;;6179504;23;20020;-93
2023/01/06 00:16:26;;;;;;;0.05;0.05;;;10.40;99.90;;;;;;6198861;23;20342;-95
2023/01/06 00:19:12;;;;;;;;;;;;;;;;;;;;;
2023/01/06 00:21:45;;;;;;;0.30;0.30;;;10.40;99.90;;;;;;6223424;23;20022;-95
2023/01/06 00:24:19;;;;;;;0.52;0.52;;;10.40;99.90;;;;;;6175055;23;20016;-94
2023/01/06 00:26:52;;;;;;;0.32;0.32;;;10.40;99.90;;;;;;6199153;23;20073;-95
2023/01/06 00:32:52;;;;;;;0.00;0.00;;;10.40;99.90;;;;;;6186500;23;20027;-94
2023/01/06 00:35:24;;;;;;;0.30;0.10;;;10.40;99.90;;;;;;6199492;23;19996;-93
2023/01/06 00:38:37;;;;;;;;;;;;;;;;;;;;;
2023/01/06 00:47:21;;;;;;;0.35;0.20;;;10.50;99.90;;;;;;6185997;23;20023;-95
2023/01/06 00:49:52;;;;;;;0.00;0.00;;;10.50;99.90;;;;;;6199499;23;20039;-95
2023/01/06 00:52:25;;;;;;;0.32;0.20;;;10.50;99.90;;;;;;6173589;23;20027;-93
2023/01/06 00:54:59;;;;;;;0.05;0.05;;;10.50;99.90;;;;;;6198811;23;20019;-94
2023/01/06 00:57:40;;;;;;;;;;;;;;;;;;;;;
2023/01/06 01:00:12;;;;;;;0.05;0.00;;;10.40;99.90;;;;;;6222717;23;20012;-95
2023/01/06 01:02:46;;;;;;;0.05;0.05;;;10.40;99.90;;;;;;6174829;23;20020;-95
2023/01/06 01:05:30;;;;;;;;;;;;;;;;;;;;;
2023/01/06 01:08:27;;;;;;;0.10;0.10;;;10.40;99.90;;;;;;6225740;23;20022;-95
2023/01/06 01:14:24;;;;;;;;;;;;;;;;;;;;;
2023/01/06 01:17:20;;;;;;;;;;;;;;;;;;;;;
2023/01/06 01:20:12;;;;;;;3.50;1.38;;;10.40;99.90;;;;;;6223291;23;20016;-94
2023/01/06 01:22:47;;;;;;;0.80;0.80;;;10.50;99.90;;;;;;6224340;23;20016;-95
2023/01/06 01:25:51;;;;;;;0.00;0.00;;;10.50;99.90;;;;;;6199131;23;20063;-94
2023/01/06 01:28:35;;;;;;;;;;;;;;;;;;;;;
2023/01/06 01:31:16;;;;;;;;;;;;;;;;;;;;;
2023/01/06 01:40:18;;;;;;;;;;;;;;;;;;;;;
2023/01/06 01:42:59;;;;;;;0.05;0.05;;;10.40;99.90;;;;;;6223050;23;20000;-95
2023/01/06 01:46:01;;;;;;;;;;;;;;;;;;;;;
2023/01/06 01:49:23;;;;;;;;;;;;;;;;;;;;;
2023/01/06 01:52:16;;;;;;;0.30;0.20;;;10.40;99.90;;;;;;6222625;23;20188;-95
2023/01/06 01:55:29;;;;;;;0.00;0.00;;;10.40;99.90;;;;;;6205142;23;20016;-94
2023/01/06 02:04:34;;;;;;;0.22;0.10;;;10.40;99.90;;;;;;6202152;23;20028;-94
2023/01/06 02:07:24;;;;;;;;;;;;;;;;;;;;;
2023/01/06 02:10:24;;;;;;;0.85;0.40;;;10.40;99.90;;;;;;6222137;23;20020;-94
2023/01/06 02:13:12;;;;;;;;;;;;;;;;;;;;;
2023/01/06 02:15:53;;;;;;;;;;;;;;;;;;;;;
2023/01/06 02:18:41;;;;;;;;;;;;;;;;;;;;;
2023/01/06 02:24:42;;;;;;;;;;;10.40;99.90;;;;;;6209098;23;20020;-95
2023/01/06 02:30:37;;;;;;;0.10;0.00;;;10.40;99.90;;;;;;6203562;23;20016;-96
2023/01/06 02:33:35;;;;;;;3.42;0.10;;;10.40;99.90;;;;;;6199410;23;20016;-95
2023/01/06 02:36:32;;;;;;;0.55;0.50;;;10.40;99.90;;;;;;6199516;23;20325;-95
2023/01/06 02:39:56;;;;;;;;;;;;;;;;;;;;;
2023/01/06 02:43:05;;;;;;;0.10;0.10;;;10.50;99.90;;;;;;6170585;23;20040;-95
2023/01/06 02:46:05;;;;;;;0.05;0.00;;;10.50;99.90;;;;;;6189792;23;20016;-95
2023/01/06 02:49:13;;;;;;;;;;;;;;;;;;;;;
2023/01/06 02:52:01;;;;;;;;;;;;;;;;;;;;;
2023/01/06 02:54:56;;;;;;;0.00;0.00;;;10.40;99.90;;;;;;6224042;23;20016;-95
2023/01/06 03:01:06;;;;;;;;;;;;;;;;;;;;;
2023/01/06 03:03:59;;;;;;;0.10;0.00;;;10.40;99.90;;;;;;6193382;23;20087;-95
2023/01/06 03:06:44;;;;;;;0.10;0.00;;;10.40;99.90;;;;;;6146418;23;20020;-95
2023/01/06 03:09:27;;;;;;;;;;;;;;;;;;;;;
2023/01/06 03:12:08;;;;;;;0.10;0.10;;;10.40;99.90;;;;;;6171451;23;20016;-96
2023/01/06 03:15:17;;;;;;;0.00;0.00;;;10.30;99.90;;;;;;6147571;23;20092;-95
2023/01/06 03:17:42;;;;;;;0.00;0.00;;;10.30;99.90;;;;;;6187508;23;20021;-96
2023/01/06 03:20:33;;;;;;;;;;;;;;;;;;;;;
2023/01/06 03:23:08;;;;;;;0.10;0.10;;;10.30;99.90;;;;;;6194683;23;20450;-94
2023/01/06 03:25:50;;;;;;;0.55;0.30;;;10.30;99.90;;;;;;6195044;23;20335;-95
2023/01/06 03:28:33;;;;;;;0.60;0.40;;;10.30;99.90;;;;;;6145991;23;20458;-95
2023/01/06 03:31:33;;;;;;;0.00;0.00;;;10.30;99.90;;;;;;6168533;23;20024;-95
2023/01/06 03:34:35;;;;;;;;;;;;;;;;;;;;;
2023/01/06 03:37:28;;;;;;;0.00;0.00;;;10.30;99.90;;;;;;6136858;23;20343;-95
2023/01/06 03:40:23;;;;;;;;;;;;;;;;;;;;;
2023/01/06 03:46:23;;;;;;;0.22;0.22;;;10.30;99.90;;;;;;6218350;23;20044;-95
2023/01/06 03:52:44;;;;;;;0.40;0.10;;;10.30;99.90;;;;;;6204744;23;20027;-96
2023/01/06 03:55:32;;;;;;;;;;;10.30;99.90;;;;;;6171621;23;20143;-94
2023/01/06 03:58:11;;;;;;;0.50;0.45;;;10.30;99.90;;;;;;6179650;23;20322;-95
2023/01/06 04:01:12;;;;;;;0.75;0.00;;;10.30;99.90;;;;;;6169302;23;20055;-94
2023/01/06 04:04:14;;;;;;;;;;;;;;;;;;;;;
2023/01/06 04:07:02;;;;;;;0.08;0.03;;;10.30;99.90;;;;;;6193478;23;20485;-95
2023/01/06 04:09:30;;;;;;;0.00;0.00;;;10.30;99.90;;;;;;6169667;23;20056;-96
2023/01/06 04:15:15;;;;;;;0.10;0.10;;;10.30;99.90;;;;;;6174070;23;20096;-94
2023/01/06 04:20:48;;;;;;;0.10;0.08;;;10.30;99.90;;;;;;6177136;23;20072;-94
2023/01/06 04:23:52;;;;;;;0.85;0.32;;;10.30;99.90;;;;;;6167461;23;20102;-96
2023/01/06 04:26:22;;;;;;;0.85;0.40;;;10.20;99.90;;;;;;6172864;22;20031;-96
2023/01/06 04:29:22;;;;;;;0.00;0.00;;;10.30;99.90;;;;;;6120416;23;20021;-96
2023/01/06 04:31:53;;;;;;;0.00;0.00;;;10.30;99.90;;;;;;6149721;23;20082;-95
2023/01/06 04:37:19;;;;;;;0.03;0.00;;;10.30;99.90;;;;;;6173213;23;20023;-95
2023/01/06 04:40:28;;;;;;;0.00;0.00;;;10.30;99.90;;;;;;6169209;23;20021;-96
2023/01/06 04:43:16;;;;;;;;;;;;;;;;;;;;;
2023/01/06 04:46:20;;;;;;;0.43;0.10;;;10.30;99.90;;;;;;6172422;23;20021;-96
2023/01/06 04:52:05;;;;;;;0.00;0.00;;;10.30;99.90;;;;;;6193845;23;20029;-95
2023/01/06 04:57:45;;;;;;;;;;;;;;;;;;;;;
2023/01/06 05:00:32;;;;;;;0.25;0.25;;;10.30;99.90;;;;;;6193131;23;20051;-95
2023/01/06 05:03:29;;;;;;;0.00;0.00;;;10.30;99.90;;;;;;6193161;23;20020;-95
2023/01/06 05:06:08;;;;;;;0.00;0.00;;;10.30;99.90;;;;;;6147601;23;20082;-96
2023/01/06 05:09:13;;;;;;;0.00;0.00;;;10.30;99.90;;;;;;6170769;23;20016;-96
2023/01/06 05:12:12;;;;;;;;;;;;;;;;;;;;;
2023/01/06 05:15:18;;;;;;;;;;;;;;;;;;;;;
2023/01/06 05:17:49;;;;;;;0.25;0.00;;;10.40;99.90;;;;;;6162756;23;20025;-96
2023/01/06 05:20:27;;;;;;;;;;;;;;;;;;;;;
2023/01/06 05:23:34;;;;;;;0.03;0.03;;;10.40;99.90;;;;;;6216872;23;20088;-95
2023/01/06 05:26:00;;;;;;;0.00;0.00;;;10.40;99.90;;;;;;6151159;23;20346;-96
2023/01/06 05:28:44;;;;;;;0.75;0.10;;;10.30;99.90;;;;;;6168879;23;20020;-96
2023/01/06 05:31:58;;;;;;;;;;;;;;;;;;;;;
2023/01/06 05:35:07;;;;;;;;;;;;;;;;;;;;;
2023/01/06 05:37:56;;;;;;;0.05;0.05;;;10.30;99.90;;;;;;6171813;23;20016;-96
2023/01/06 05:40:55;;;;;;;;;;;;;;;;;;;;;
2023/01/06 05:43:40;;;;;;;0.00;0.00;;;10.40;99.90;;;;;;6178429;23;20072;-95
2023/01/06 05:46:48;;;;;;;0.03;0.03;;;10.40;99.90;;;;;;6147018;23;20026;-96
2023/01/06 05:49:39;;;;;;;0.00;0.00;;;10.40;99.90;;;;;;6193333;23;20048;-95
2023/01/06 05:52:51;;;;;;;0.00;0.00;;;10.40;99.90;;;;;;6148275;23;20075;-95
2023/01/06 05:55:35;;;;;;;0.00;0.00;;;10.40;99.90;;;;;;6148790;23;20017;-94
2023/01/06 05:58:31;;;;;;;0.00;0.00;;;10.40;99.90;;;;;;6125085;23;20021;-96
2023/01/06 06:01:25;;;;;;;1.35;0.75;;;10.40;99.90;;;;;;6146352;23;20073;-95
2023/01/06 06:04:30;;;;;;;0.10;0.10;;;10.40;99.90;;;;;;6171788;23;20024;-96
2023/01/06 06:07:09;;;;;;;;;;;;;;;;;;;;;
2023/01/06 06:09:42;;;;;;;0.03;0.00;;;10.40;99.90;;;;;;6221689;23;20099;-95
2023/01/06 06:12:42;;;;;;;;;;;;;;;;;;;;;
2023/01/06 06:15:43;;;;;;;0.15;0.10;;;10.40;99.90;;;;;;6211590;23;20043;-95
2023/01/06 06:18:43;;;;;;;;;;;;;;;;;;;;;
2023/01/06 06:24:36;;;;;;;;;;;;;;;;;;;;;
2023/01/06 06:27:38;;;;;;;;;;;;;;;;;;;;;
2023/01/06 06:30:22;;;;;;;;;;;;;;;;;;;;;
2023/01/06 06:33:50;;;;;;;0.00;0.00;;;10.40;99.90;;;;;;6222072;23;20048;-96
2023/01/06 06:37:00;;;;;;;0.00;0.00;;;10.40;99.90;;;;;;6208726;23;20358;-96
2023/01/06 06:40:02;;;;;;;0.47;0.00;;;10.40;99.90;;;;;;6198261;23;20012;-96
2023/01/06 06:42:31;;;;;;;0.45;0.32;;;10.30;99.90;;;;;;6179902;23;20074;-95
2023/01/06 06:45:04;;;;;;;0.00;0.00;;;10.30;99.90;;;;;;6197677;23;20016;-94
2023/01/06 06:47:53;;;;;;;;;;;;;;;;;;;;;
2023/01/06 06:50:57;;;;;;;0.88;0.00;;;10.20;99.90;;;;;;6180022;23;20110;-93
2023/01/06 06:53:52;;;;;;;0.00;0.00;;;10.20;99.90;;;;;;6216687;23;20016;-96
2023/01/06 07:03:23;;;;;;;;;;;;;;;;;;;;;
2023/01/06 07:11:19;;;;;;;0.00;0.00;;;10.00;99.90;;;;;;6218310;22;20012;-96
2023/01/06 07:14:20;;;;;;;;;;;;;;;;;;;;;
2023/01/06 07:16:56;;;;;;;;;;;;;;;;;;;;;
2023/01/06 07:19:28;;;;;;;0.00;0.00;;;9.90;99.90;;;;;;6249884;23;20020;-91
2023/01/06 07:22:04;;;;;;;0.22;0.00;;;9.90;99.90;;;;;;6198642;23;20020;-92
2023/01/06 07:25:32;;;;;;;;;;;;;;;;;;;;;
2023/01/06 07:28:32;;;;;;;0.10;0.10;;;9.90;99.90;;;;;;6124343;23;20018;-94
2023/01/06 07:31:27;;;;;;;;;;;;;;;;;;;;;
2023/01/06 07:34:13;;;;;;;0.25;0.25;;;9.90;99.90;;;;;;6251512;23;20341;-92
2023/01/06 07:39:43;;;;;;;0.00;0.00;;;9.90;99.90;;;;;;6211898;23;20473;-93
2023/01/06 07:42:19;;;;;;;0.00;0.00;;;9.90;99.90;;;;;;6252244;23;20068;-94
2023/01/06 07:47:36;;;;;;;0.00;0.00;;;9.90;99.90;;;;;;6220702;23;20338;-95
2023/01/06 07:50:20;;;;;;;0.00;0.00;;;9.90;99.90;;;;;;6228792;23;20477;-95
2023/01/06 07:56:23;;;;;;;;;;;;;;;;;;;;;
2023/01/06 07:59:46;;;;;;;;;;;;;;;;;;;;;
2023/01/06 08:02:57;;;;;;;0.00;0.00;;;9.90;99.90;;;;;;6168157;23;20028;-96
2023/01/06 08:06:08;;;;;;;;;;;;;;;;;;;;;
2023/01/06 08:14:41;;;;;;;0.00;0.00;;;10.00;99.90;;;;;;6302396;22;20061;-90
2023/01/06 08:17:14;;;;;;;0.00;0.00;;;9.90;99.90;;;;;;6251234;22;20070;-88
2023/01/06 08:19:50;;;;;;;0.10;0.00;;;10.00;99.90;;;;;;6253683;22;20011;-89
2023/01/06 08:22:26;;;;;;;0.10;0.10;;;10.00;99.90;;;;;;6229384;22;20026;-90
2023/01/06 08:24:57;;;;;;;0.00;0.00;;;10.00;99.90;;;;;;6255591;22;20072;-89
2023/01/06 08:27:33;;;;;;;0.00;0.00;;;10.00;99.90;;;;;;6226097;22;20062;-89
2023/01/06 08:30:07;;;;;;;0.00;0.00;;;10.00;99.90;;;;;;6225721;22;20023;-91
2023/01/06 08:32:35;;;;;;;0.00;0.00;;;10.00;99.90;;;;;;6228524;22;20012;-94
2023/01/06 08:35:34;;;;;;;0.00;0.00;;;10.10;99.90;;;;;;6231280;22;20018;-93
2023/01/06 08:38:00;;;;;;;0.20;0.00;;;10.00;99.90;;;;;;6226255;22;20129;-90
2023/01/06 08:44:17;;;;;;;;;;;;;;;;;;;;;
2023/01/06 08:47:21;;;;;;;;;;;;;;;;;;;;;
2023/01/06 08:50:32;;;;;;;;;;;;;;;;;;;;;
2023/01/06 08:56:22;;;;;;;0.00;0.00;;;9.60;99.90;;;;;;6236243;22;20020;-90
2023/01/06 08:59:32;;;;;;;0.00;0.00;;;10.40;99.90;;;;;;6254190;22;20026;-90
2023/01/06 09:02:26;;;;;;;0.00;0.00;;;11.40;99.90;;;;;;6203849;22;20529;-88
2023/01/06 09:05:09;;;;;;;0.45;0.20;;;12.00;99.90;;;;;;6251545;22;20012;-88
2023/01/06 09:07:53;;;;;;;0.00;0.00;;;12.80;99.90;;;;;;6226671;22;20085;-87
2023/01/06 09:10:29;;;;;;;0.00;0.00;;;13.50;99.90;;;;;;6251449;22;20113;-88
2023/01/06 09:12:55;;;;;;;0.00;0.00;;;14.10;99.90;;;;;;6226836;22;20020;-90
2023/01/06 09:15:30;;;;;;;;;;;;;;;;;;;;;
2023/01/06 09:18:07;;;;;;;0.00;0.00;;;15.00;99.90;;;;;;6252312;22;20026;-91
2023/01/06 09:20:41;;;;;;;0.00;0.00;;;15.20;99.90;;;;;;6203682;22;20102;-91
2023/01/06 09:23:17;;;;;;;0.00;0.00;;;15.20;99.90;;;;;;6227670;22;20099;-91
2023/01/06 09:25:44;;;;;;;0.00;0.00;;;15.30;99.90;;;;;;6227505;22;20023;-90
2023/01/06 09:28:19;;;;;;;0.00;0.00;;;15.30;99.90;;;;;;6232066;22;20449;-90
2023/01/06 09:30:58;;;;;;;0.00;0.00;;;15.60;99.90;;;;;;6231828;22;20020;-91
2023/01/06 09:33:34;;;;;;;0.00;0.00;;;15.80;99.90;;;;;;6252744;22;20016;-90
2023/01/06 09:36:14;;;;;;;0.00;0.00;;;15.90;99.90;;;;;;6253310;22;20019;-91
2023/01/06 09:39:07;;;;;;;;;;;;;;;;;;;;;
2023/01/06 09:42:11;;;;;;;0.00;0.00;;;16.40;99.90;;;;;;6253337;22;20023;-91
2023/01/06 09:45:06;;;;;;;0.00;0.00;;;16.80;99.90;;;;;;6227514;22;20030;-92
2023/01/06 09:51:14;;;;;;;0.08;0.08;;;17.00;99.90;;;;;;6241557;22;20073;-93
2023/01/06 09:54:17;;;;;;;0.00;0.00;;;17.20;99.90;;;;;;6254036;22;20016;-92
2023/01/06 09:56:57;;;;;;;0.00;0.00;;;17.40;99.90;;;;;;6227843;22;20016;-94
2023/01/06 10:00:02;;;;;;;1.17;0.20;;;17.50;99.90;;;;;;6227829;22;20442;-93
2023/01/06 10:03:00;;;;;;;1.55;1.30;;;17.50;99.90;;;;;;6279545;22;20020;-92
2023/01/06 10:05:56;;;;;;;0.00;0.00;;;17.40;99.90;;;;;;6230366;22;20098;-92
2023/01/06 10:11:58;;;;;;;0.00;0.00;;;16.90;99.90;;;;;;6201061;22;20020;-93
2023/01/06 10:20:54;;;;;;;0.00;0.00;;;15.40;99.90;;;;;;6252681;22;20023;-93
2023/01/06 10:23:41;;;;;;;0.00;0.00;;;15.10;99.90;;;;;;6228234;22;20015;-94
2023/01/06 10:29:47;;;;;;;0.00;0.00;;;15.30;99.90;;;;;;6240736;22;20020;-92
2023/01/06 10:32:41;;;;;;;;;;;;;;;;;;;;;
2023/01/06 10:35:20;;;;;;;0.00;0.00;;;16.10;99.90;;;;;;6253355;22;20016;-93
2023/01/06 10:38:01;;;;;;;;;;;;;;;;;;;;;
2023/01/06 10:40:48;;;;;;;0.00;0.00;;;16.30;99.90;;;;;;6253209;22;20034;-95
2023/01/06 10:43:23;;;;;;;0.00;0.00;;;15.90;99.90;;;;;;6228529;22;20408;-93
2023/01/06 10:45:57;;;;;;;0.10;0.10;;;15.80;99.90;;;;;;6229910;22;20082;-95
2023/01/06 10:48:29;;;;;;;0.17;0.17;;;15.30;99.90;;;;;;6255191;22;20016;-94
2023/01/06 10:51:22;;;;;;;0.17;0.17;;;14.70;99.90;;;;;;6230398;22;20109;-94
2023/01/06 10:53:59;;;;;;;0.00;0.00;;;14.10;99.90;;;;;;6254002;22;20453;-91
2023/01/06 10:56:42;;;;;;;0.00;0.00;;;13.50;99.90;;;;;;6254996;22;20012;-93
2023/01/06 10:59:13;;;;;;;0.03;0.00;;;13.40;99.90;;;;;;6230197;22;20016;-92
2023/01/06 11:01:55;;;;;;;0.10;0.10;;;13.20;99.90;;;;;;6228464;22;20015;-93
2023/01/06 11:04:23;;;;;;;6.90;0.20;;;13.40;99.90;;;;;;6230205;22;20081;-93
2023/01/06 11:07:17;;;;;;;0.00;0.00;;;13.80;99.90;;;;;;6229407;22;20022;-93
2023/01/06 11:09:50;;;;;;;0.00;0.00;;;14.00;99.90;;;;;;6255018;22;20018;-92
2023/01/06 11:15:23;;;;;;;0.00;0.00;;;15.10;99.90;;;;;;6243861;22;20054;-93
2023/01/06 11:18:01;;;;;;;0.00;0.00;;;15.60;99.90;;;;;;6229609;22;20022;-94
2023/01/06 11:20:41;;;;;;;0.00;0.00;;;16.10;99.90;;;;;;6229518;22;20106;-93
2023/01/06 11:23:22;;;;;;;0.00;0.00;;;16.40;99.90;;;;;;6182393;22;20073;-95
2023/01/06 11:26:28;;;;;;;0.00;0.00;;;16.70;99.90;;;;;;6229235;22;20011;-94
2023/01/06 11:29:29;;;;;;;0.10;0.00;;;16.80;99.90;;;;;;6229968;22;20046;-92
2023/01/06 11:32:06;;;;;;;0.00;0.00;;;16.90;99.90;;;;;;6255251;22;20441;-93
2023/01/06 11:34:34;;;;;;;0.00;0.00;;;16.90;99.90;;;;;;6255225;22;20012;-94
2023/01/06 11:37:00;;;;;;;0.98;0.90;;;16.60;99.90;;;;;;6230182;22;20015;-94
2023/01/06 11:39:51;;;;;;;1.67;0.40;;;16.60;99.90;;;;;;6230435;22;20041;-93
2023/01/06 11:42:39;;;;;;;;;;;;;;;;;;;;;
2023/01/06 11:45:14;;;;;;;0.00;0.00;;;16.50;99.90;;;;;;6255899;22;20438;-94
2023/01/06 11:47:47;;;;;;;1.10;0.20;;;16.10;99.90;;;;;;6214246;22;20020;-95
2023/01/06 11:50:32;;;;;;;;;;;;;;;;;;;;;
2023/01/06 11:53:30;;;;;;;;;;;;;;;;;;;;;
2023/01/06 11:56:20;;;;;;;0.00;0.00;;;15.80;99.90;;;;;;6272189;22;20195;-95
2023/01/06 12:02:36;;;;;;;;;;;;;;;;;;;;;
2023/01/06 12:05:29;;;;;;;0.00;0.00;;;15.70;99.90;;;;;;6259977;22;20026;-95
2023/01/06 12:08:11;;;;;;;0.00;0.00;;;15.80;99.90;;;;;;6222456;22;20020;-94
2023/01/06 12:11:13;;;;;;;0.00;0.00;;;15.80;99.90;;;;;;6247701;22;20030;-96
2023/01/06 12:14:10;;;;;;;0.00;0.00;;;15.50;99.90;;;;;;6232838;22;20020;-96
2023/01/06 12:16:58;;;;;;;0.10;0.10;;;15.20;99.90;;;;;;6211472;22;20015;-94
2023/01/06 12:20:21;;;;;;;0.80;0.75;;;14.80;99.90;;;;;;6229497;22;20020;-94
2023/01/06 12:23:35;;;;;;;0.00;0.00;;;14.40;99.90;;;;;;6218300;22;20073;-96
2023/01/06 12:27:03;;;;;;;;;;;;;;;;;;;;;
2023/01/06 12:30:00;;;;;;;;;;;;;;;;;;;;;
2023/01/06 12:36:12;;;;;;;0.00;0.00;;;12.70;99.90;;;;;;6244525;22;20020;-95
2023/01/06 12:39:44;;;;;;;0.00;0.00;;;12.70;99.90;;;;;;6228817;22;20019;-95
2023/01/06 12:42:14;;;;;;;1.40;0.45;;;13.00;99.90;;;;;;6250493;22;20051;-95
2023/01/06 12:45:02;;;;;;;0.00;0.00;;;12.80;99.90;;;;;;6229602;22;20513;-94
2023/01/06 12:47:33;;;;;;;0.00;0.00;;;12.80;99.90;;;;;;6256140;22;20012;-95
2023/01/06 12:50:44;;;;;;;0.00;0.00;;;12.70;99.90;;;;;;6256106;22;20016;-96
2023/01/06 12:53:22;;;;;;;0.00;0.00;;;12.60;99.90;;;;;;6229932;22;20020;-95
2023/01/06 12:56:22;;;;;;;;;;;;;;;;;;;;;
2023/01/06 12:59:38;;;;;;;0.00;0.00;;;12.70;99.90;;;;;;6261849;22;20505;-95
2023/01/06 13:02:30;;;;;;;;;;;;;;;;;;;;;
2023/01/06 13:21:11;;;;;;;;;;;;;;;;;;;;;
2023/01/06 13:23:59;;;;;;;0.00;0.00;;;11.40;99.90;;;;;;6199527;22;20031;-96
2023/01/06 13:29:43;;;;;;;0.00;0.00;;;11.30;99.90;;;;;;6217790;22;19922;-96
2023/01/06 13:32:26;;;;;;;0.00;0.00;;;11.20;99.90;;;;;;6229514;23;20062;-96
2023/01/06 13:35:32;;;;;;;0.00;0.00;;;11.20;99.90;;;;;;6201838;23;20016;-96
2023/01/06 13:44:46;;;;;;;0.00;0.00;;;11.00;99.90;;;;;;6251440;22;20020;-96
2023/01/06 13:47:59;;;;;;;2.40;1.17;;;11.00;99.90;;;;;;6212340;23;20090;-96
2023/01/06 13:54:00;;;;;;;;;;;;;;;;;;;;;
2023/01/06 13:56:59;;;;;;;0.20;0.20;;;10.80;99.90;;;;;;6233451;23;20020;-96
2023/01/06 14:02:43;;;;;;;;;;;;;;;;;;;;;
2023/01/06 14:05:27;;;;;;;0.05;0.05;;;10.80;99.90;;;;;;6226751;23;20021;-96
2023/01/06 14:12:08;;;;;;;;;;;;;;;;;;;;;
2023/01/06 14:14:46;;;;;;;0.00;0.00;;;10.70;99.90;;;;;;6223932;23;20020;-95
2023/01/06 14:18:07;;;;;;;0.00;0.00;;;10.80;99.90;;;;;;6200959;23;20103;-96
2023/01/06 14:20:59;;;;;;;0.00;0.00;;;10.70;99.90;;;;;;6226762;23;20016;-95
2023/01/06 14:23:47;;;;;;;;;;;;;;;;;;;;;
2023/01/06 14:33:47;;;;;;;0.00;0.00;;;10.60;99.90;;;;;;6180196;23;20070;-96
2023/01/06 14:56:31;;;;;;;0.00;0.00;;;10.30;99.90;;;;;;6259107;22;20031;-96
2023/01/06 15:00:01;;;;;;;;;;;;;;;;;;;;;
2023/01/06 15:02:43;;;;;;;;;;;;;;;;;;;;;
2023/01/06 15:06:00;;;;;;;;;;;;;;;;;;;;;
2023/01/06 15:09:12;;;;;;;;;;;;;;;;;;;;;
2023/01/06 15:12:24;;;;;;;0.00;0.00;;;10.00;99.90;;;;;;6064437;23;20019;-96
2023/01/06 15:15:38;;;;;;;0.00;0.00;;;10.00;99.90;;;;;;6051590;23;20018;-94
2023/01/06 15:18:19;;;;;;;0.20;0.20;;;9.90;99.90;;;;;;6153272;23;20020;-95
2023/01/06 15:20:53;;;;;;;0.00;0.00;;;9.90;99.90;;;;;;6202011;23;20020;-96
2023/01/06 15:23:41;;;;;;;0.00;0.00;;;9.80;99.90;;;;;;6227842;23;20035;-96
2023/01/06 15:26:38;;;;;;;0.00;0.00;;;9.80;99.90;;;;;;6229123;23;20068;-96
2023/01/06 15:29:13;;;;;;;0.00;0.00;;;9.70;99.90;;;;;;6227505;23;20050;-96
2023/01/06 15:31:59;;;;;;;0.00;0.00;;;9.60;99.90;;;;;;6176646;23;20095;-95
2023/01/06 15:34:41;;;;;;;0.00;0.00;;;9.50;99.90;;;;;;6179326;23;20342;-95
2023/01/06 15:37:30;;;;;;;0.00;0.00;;;9.50;99.90;;;;;;6229167;23;20622;-95
2023/01/06 15:39:58;;;;;;;0.20;0.20;;;9.40;99.90;;;;;;6203948;23;20062;-96
2023/01/06 15:42:26;;;;;;;0.00;0.00;;;9.40;99.90;;;;;;6204555;23;20020;-96
2023/01/06 15:45:05;;;;;;;0.40;0.40;;;9.40;99.90;;;;;;6230424;23;20106;-96
2023/01/06 15:47:32;;;;;;;0.00;0.00;;;9.30;99.90;;;;;;6207953;23;20067;-94
2023/01/06 15:50:36;;;;;;;0.00;0.00;;;9.30;99.90;;;;;;6211789;23;20046;-96
2023/01/06 15:53:33;;;;;;;0.00;0.00;;;9.30;99.90;;;;;;6203512;23;20027;-96
2023/01/06 15:58:58;;;;;;;0.00;0.00;;;9.20;99.90;;;;;;6229555;23;20021;-96
2023/01/06 16:02:12;;;;;;;;;;;;;;;;;;;;;
2023/01/06 16:04:51;;;;;;;0.00;0.00;;;9.10;99.90;;;;;;6228700;23;20373;-96
2023/01/06 16:07:57;;;;;;;0.00;0.00;;;9.10;99.90;;;;;;6182008;23;20050;-96
2023/01/06 16:10:54;;;;;;;0.00;0.00;;;9.10;99.90;;;;;;6198231;23;20103;-96
2023/01/06 16:17:22;;;;;;;0.05;0.05;;;9.00;99.90;;;;;;6194400;23;20103;-96
2023/01/06 16:20:41;;;;;;;0.00;0.00;;;9.00;99.90;;;;;;6208657;23;20099;-96
2023/01/06 16:23:38;;;;;;;;;;;;;;;;;;;;;
2023/01/06 16:26:21;;;;;;;;;;;;;;;;;;;;;
2023/01/06 16:29:28;;;;;;;0.00;0.00;;;8.90;99.90;;;;;;6225541;23;20099;-96
2023/01/06 16:33:07;;;;;;;0.00;0.00;;;8.80;99.90;;;;;;6198376;23;20035;-96
2023/01/06 16:35:42;;;;;;;0.00;0.00;;;8.80;99.90;;;;;;6175904;23;20016;-96
2023/01/06 16:38:07;;;;;;;;;;;8.80;99.90;;;;;;6201538;23;20020;-95
2023/01/06 16:40:39;;;;;;;0.00;0.00;;;8.80;99.90;;;;;;6204003;23;19922;-96
2023/01/06 16:43:16;;;;;;;0.65;0.60;;;8.70;99.90;;;;;;6180058;23;20016;-96
2023/01/06 16:45:59;;;;;;;;;;;;;;;;;;;;;
2023/01/06 16:49:09;;;;;;;0.05;0.00;;;8.80;99.90;;;;;;6186783;23;20000;-96
2023/01/06 16:52:43;;;;;;;0.20;0.05;;;8.70;99.90;;;;;;6227465;23;20497;-96
2023/01/06 16:55:40;;;;;;;0.00;0.00;;;8.80;99.90;;;;;;6222728;23;20020;-92
2023/01/06 17:01:17;;;;;;;0.00;0.00;;;8.80;99.90;;;;;;6285455;22;20020;-96
2023/01/06 17:03:49;;;;;;;0.00;0.00;;;8.80;99.90;;;;;;6211410;22;20012;-96
2023/01/06 17:06:28;;;;;;;0.00;0.00;;;8.80;99.90;;;;;;6235594;22;20016;-94
2023/01/06 17:09:41;;;;;;;2.40;0.45;;;8.80;99.90;;;;;;6238528;22;20038;-95
2023/01/06 17:16:07;;;;;;;0.00;0.00;;;8.90;99.90;;;;;;6238917;22;20027;-96
2023/01/06 17:19:31;;;;;;;0.63;0.47;;;8.80;99.90;;;;;;6233722;22;20059;-95
2023/01/06 17:22:50;;;;;;;0.00;0.00;;;8.90;99.90;;;;;;6259286;22;20024;-93
2023/01/06 17:25:29;;;;;;;;;;;;;;;;;;;;;
2023/01/06 17:28:20;;;;;;;0.00;0.00;;;8.80;99.90;;;;;;6270999;22;20018;-95
2023/01/06 17:31:06;;;;;;;;;;;;;;;;;;;;;
2023/01/06 17:34:08;;;;;;;0.13;0.00;;;8.80;99.90;;;;;;6250994;22;20016;-88
2023/01/06 17:37:23;;;;;;;0.75;0.52;;;8.80;99.90;;;;;;6213705;23;20046;-91
2023/01/06 17:40:42;;;;;;;;;;;;;;;;;;;;;
2023/01/06 17:46:39;;;;;;;0.40;0.00;;;8.70;99.90;;;;;;6202667;23;20098;-92
2023/01/06 17:49:37;;;;;;;0.00;0.00;;;8.60;99.90;;;;;;6198183;23;20442;-89
2023/01/06 17:52:48;;;;;;;;;;;;;;;;;;;;;
2023/01/06 17:55:52;;;;;;;0.00;0.00;;;8.60;99.90;;;;;;6223406;23;20019;-91
2023/01/06 17:58:44;;;;;;;0.00;0.00;;;8.60;99.90;;;;;;6217369;22;20008;-90
2023/01/06 18:01:52;;;;;;;;;;;;;;;;;;;;;
2023/01/06 18:04:30;;;;;;;0.52;0.38;;;8.60;99.90;;;;;;6233216;23;20027;-93
2023/01/06 18:07:27;;;;;;;0.03;0.00;;;8.60;99.90;;;;;;6221407;22;20020;-96
2023/01/06 18:14:13;;;;;;;;;;;;;;;;;;;;;
2023/01/06 18:24:08;;;;;;;0.00;0.00;;;8.40;99.90;;;;;;6274421;22;20083;-96
2023/01/06 18:27:12;;;;;;;1.02;0.55;;;8.40;99.90;;;;;;6192222;23;20369;-94
2023/01/06 18:30:14;;;;;;;0.00;0.00;;;8.50;99.90;;;;;;6230538;23;20426;-95
2023/01/06 18:33:24;;;;;;;0.13;0.13;;;8.40;99.90;;;;;;6226889;23;20031;-94
2023/01/06 18:36:14;;;;;;;;;;;;;;;;;;;;;
2023/01/06 18:38:50;;;;;;;0.20;0.20;;;8.40;99.90;;;;;;6226375;23;20012;-87
2023/01/06 18:41:42;;;;;;;0.00;0.00;;;8.40;99.90;;;;;;6221280;23;20024;-89
2023/01/06 18:45:19;;;;;;;;;;;;;;;;;;;;;
2023/01/06 18:48:58;;;;;;;;;;;;;;;;;;;;;
2023/01/06 18:52:18;;;;;;;;;;;;;;;;;;;;;
2023/01/06 18:55:17;;;;;;;0.00;0.00;;;8.40;99.90;;;;;;6258503;23;20051;-96
2023/01/06 18:57:55;;;;;;;0.00;0.00;;;8.40;99.90;;;;;;6211651;23;20038;-92
2023/01/06 19:01:18;;;;;;;;;;;;;;;;;;;;;
2023/01/06 19:04:39;;;;;;;0.00;0.00;;;8.30;99.90;;;;;;6254826;22;20047;-96
2023/01/06 19:08:00;;;;;;;;;;;;;;;;;;;;;
2023/01/06 19:10:48;;;;;;;0.13;0.05;;;8.30;99.90;;;;;;6262503;23;20008;-95
2023/01/06 19:13:42;;;;;;;;;;;;;;;;;;;;;
2023/01/06 19:19:07;;;;;;;0.10;0.10;;;8.20;99.90;;;;;;6285666;22;20020;-96
2023/01/06 20:14:24;;;;;;;0.00;0.00;;;8.00;99.90;;;;;;6280060;22;20099;-92
2023/01/06 20:17:15;;;;;;;;;;;;;;;;;;;;;
2023/01/06 20:20:01;;;;;;;0.00;0.00;;;8.10;99.90;;;;;;6254988;22;20047;-90
2023/01/06 20:33:22;;;;;;;0.57;0.30;;;8.10;99.90;;;;;;6010237;23;20538;-92
2023/01/06 20:35:59;;;;;;;1.45;0.63;;;8.10;99.90;;;;;;6099153;23;20041;-93
2023/01/06 20:42:55;;;;;;;0.20;0.20;;;8.10;99.90;;;;;;6061208;23;20057;-93
2023/01/06 20:46:12;;;;;;;1.27;0.68;;;8.20;99.90;;;;;;6079166;23;20105;-95
2023/01/06 20:48:58;;;;;;;;;;;;;;;;;;;;;
2023/01/06 20:51:56;;;;;;;;;;;;;;;;;;;;;
2023/01/06 21:21:35;;;;;;;2.30;0.60;;;8.60;99.90;;;;;;6130626;23;20049;31
2023/01/06 22:04:44;;;;;;;0.43;0.20;;;9.40;99.90;;;;;;6091946;23;20010;-96
2023/01/06 22:10:48;;;;;;;0.10;0.00;;;9.50;99.90;;;;;;6212411;22;20030;-96
2023/01/06 22:17:55;;;;;;;;;;;;;;;;;;;;;
2023/01/06 22:33:57;;;;;;;;;;;;;;;;;;;;;
2023/01/06 22:58:08;;;;;;;;;;;;;;;;;;;;;
2023/01/06 23:57:34;;;;;;;0.00;0.00;;;10.20;99.90;;;;;;6274554;22;20004;-96
